Greycliff, Montana
Current Conditions -  °F | °C
As of 1:53 PM on Tuesday 21 Oct 2014 (Local Time) from KLVM Reporting Station
Broken Clouds Broken Clouds  
Wind Chill: 66°   Ceiling: 7500
Heat Index: 66°   Visibility: 10mi
Dew Point: 36°   Wind: 25mph
Humidity: 33%   Direction: 240°WSW
Pressure: 29.73"   Gusts: 43mph
Location:  45.76°N, 109.79°W
Report Text: KLVM 211953Z AUTO 24022G37KT 10SM BKN075 19/02 A2973 RMK AO2 PK WND 24037/1949 SLP026 T01890022
Loading
Personal Weather Stations






























Interactive Weather Map
Tropical Storm Tracking
New forecast layout! Learn more

10-Day Weather Forecast

Advertisements
Track Severe Weather on mobile